Time;durP1;ratioP1;P1;durP2;ratioP2;P2;SDS_P1;SDS_P2;PMS_P1;PMS_P2;Temp;Humidity;BMP_temperature;BMP_pressure;BME280_temperature;BME280_humidity;BME280_pressure;Samples;Min_cycle;Max_cycle;Signal;HPM_P1;HPM_P2
2023/02/14 00:01:20;;;;;;;;;;;;;;;-144.99;76.25;52590.78;5073237;28;19960;-75
2023/02/14 00:03:48;;;;;;;;;;;;;;;-144.99;76.22;52586.69;5069251;28;19951;-74
2023/02/14 00:06:14;;;;;;;;;;;;;;;-144.99;76.37;52558.16;5074531;28;19957;-74
2023/02/14 00:08:43;;;;;;;;;;;;;;;-144.99;76.37;52558.16;5069108;28;19955;-77
2023/02/14 00:11:10;;;;;;;;;;;;;;;-144.99;76.43;52550.00;5067026;28;19962;-75
2023/02/14 00:13:36;;;;;;;;;;;;;;;-144.99;76.20;52558.16;5078333;28;19989;-76
2023/02/14 00:16:02;;;;;;;;;;;;;;;-144.99;76.14;52598.94;4720690;28;9999796;-74
2023/02/14 00:21:10;;;;;;;;;;;;;;;-144.99;76.35;52554.09;5068138;28;20156;-76
2023/02/14 00:23:36;;;;;;;;;;;;;;;-144.99;76.39;52580.59;5072445;28;19976;-75
2023/02/14 00:26:03;;;;;;;;;;;;;;;-144.99;76.52;52582.63;5063811;28;19952;-75
2023/02/14 00:28:29;;;;;;;;;;;;;;;-144.99;76.54;52558.16;5074215;28;19942;-75
2023/02/14 00:30:56;;;;;;;;;;;;;;;-144.99;76.59;52576.50;5079187;28;19955;-74
2023/02/14 00:33:23;;;;;;;;;;;;;;;-144.99;76.50;52533.69;5086314;28;19944;-74
2023/02/14 00:35:51;;;;;;;;;;;;;;;-144.99;76.57;52550.00;5079060;28;19941;-75
2023/02/14 00:38:17;;;;;;;;;;;;;;;-144.99;76.56;52576.50;5070724;28;19985;-75
2023/02/14 00:40:44;;;;;;;;;;;;;;;-144.99;76.54;52574.47;5077169;28;19939;-74
2023/02/14 00:43:10;;;;;;;;;;;;;;;-144.99;76.27;52501.09;5085805;28;20353;-74
2023/02/14 00:45:36;;;;;;;;;;;;;;;-144.99;75.97;52582.63;5081339;28;20435;-74
2023/02/14 00:48:03;;;;;;;;;;;;;;;-144.99;75.93;52541.84;5077655;28;19944;-74
2023/02/14 00:50:30;;;;;;;;;;;;;;;-144.99;76.17;52545.94;5082386;28;19951;-74
2023/02/14 00:52:57;;;;;;;;;;;;;;;-144.99;76.15;52590.78;5085034;28;19958;-75
2023/02/14 00:55:24;;;;;;;;;;;;;;;-144.99;76.49;52590.78;5076722;28;19948;-75
2023/02/14 00:57:50;;;;;;;;;;;;;;;-144.99;76.40;52558.16;5076591;28;19938;-75
2023/02/14 01:00:17;;;;;;;;;;;;;;;-144.99;76.33;52590.78;5085668;28;19962;-74
2023/02/14 01:02:43;;;;;;;;;;;;;;;-144.99;76.28;52598.94;5078036;28;19958;-75
2023/02/14 01:05:10;;;;;;;;;;;;;;;-144.99;75.90;52570.38;5083436;28;19941;-74
2023/02/14 01:07:36;;;;;;;;;;;;;;;-144.99;75.74;52552.03;5078044;28;19946;-76
2023/02/14 01:10:05;;;;;;;;;;;;;;;-144.99;75.74;52570.38;5071396;28;19956;-75
2023/02/14 01:12:31;;;;;;;;;;;;;;;-144.99;75.60;52570.38;5091482;28;19961;-74
2023/02/14 01:14:58;;;;;;;;;;;;;;;-144.99;75.64;52558.16;5078079;28;19948;-75
2023/02/14 01:17:24;;;;;;;;;;;;;;;-144.99;75.74;52570.38;5091815;28;19952;-74
2023/02/14 01:19:51;;;;;;;;;;;;;;;-144.99;75.60;52554.09;5055627;28;20520;-74
2023/02/14 01:22:18;;;;;;;;;;;;;;;-144.99;75.66;52574.47;5079586;28;20008;-74
2023/02/14 01:24:44;;;;;;;;;;;;;;;-144.99;75.33;52582.63;5069932;28;19940;-75
2023/02/14 01:27:12;;;;;;;;;;;;;;;-144.99;75.77;52562.25;5066772;28;19945;-74
2023/02/14 01:29:38;;;;;;;;;;;;;;;-144.99;75.83;52574.47;5074094;28;19953;-74
2023/02/14 01:32:05;;;;;;;;;;;;;;;-144.99;75.76;52590.78;5076803;28;19956;-74
2023/02/14 01:34:31;;;;;;;;;;;;;;;-144.99;75.83;52615.25;5079181;28;20019;-75
2023/02/14 01:36:58;;;;;;;;;;;;;;;-144.99;75.76;52568.34;5065993;28;19971;-75
2023/02/14 01:39:24;;;;;;;;;;;;;;;-144.99;75.76;52576.50;5064011;28;19991;-74
2023/02/14 01:41:52;;;;;;;;;;;;;;;-144.99;75.88;52603.00;5080631;28;19996;-75
2023/02/14 01:44:37;;;;;;;;;;;;;;;-144.99;75.69;52525.56;5083227;28;19995;-75
2023/02/14 01:47:07;;;;;;;;;;;;;;;-144.99;75.89;52570.38;5069800;28;19946;-74
2023/02/14 01:49:35;;;;;;;;;;;;;;;-144.99;75.87;52564.28;5067743;28;19939;-75
2023/02/14 01:52:04;;;;;;;;;;;;;;;-144.99;75.78;52582.63;5070930;28;19963;-74
2023/02/14 01:54:31;;;;;;;;;;;;;;;-144.99;75.82;52582.63;5071287;28;19949;-75
2023/02/14 01:57:00;;;;;;;;;;;;;;;-144.99;76.01;52558.16;5064027;28;19945;-75
2023/02/14 01:59:28;;;;;;;;;;;;;;;-144.99;75.95;52562.25;5079516;28;19936;-77
2023/02/14 02:01:54;;;;;;;;;;;;;;;-144.99;75.95;52545.94;5088365;28;19955;-75
2023/02/14 02:04:23;;;;;;;;;;;;;;;-144.99;75.96;52574.47;5074377;28;19964;-76
2023/02/14 02:06:52;;;;;;;;;;;;;;;-144.99;76.00;52554.09;5071739;28;20085;-74
2023/02/14 02:09:21;;;;;;;;;;;;;;;-144.99;76.02;52564.28;5060918;28;20291;-76
2023/02/14 02:11:48;;;;;;;;;;;;;;;-144.99;76.10;52566.31;5077076;28;19962;-75
2023/02/14 02:14:16;;;;;;;;;;;;;;;-144.99;76.05;52533.69;5078549;28;19940;-74
2023/02/14 02:17:10;;;;;;;;;;;;;;;-144.99;76.09;52566.31;5071099;28;20333;-75
2023/02/14 02:19:54;;;;;;;;;;;;;;;-144.99;76.17;52586.69;5063702;28;19929;-76
2023/02/14 02:22:43;;;;;;;;;;;;;;;-144.99;76.38;52584.66;5078093;28;19960;-76
2023/02/14 02:25:13;;;;;;;;;;;;;;;-144.99;76.28;52570.38;5081969;28;19984;-76
2023/02/14 02:27:55;;;;;;;;;;;;;;;-144.99;76.38;52570.38;5066782;28;19950;-75
2023/02/14 02:30:37;;;;;;;;;;;;;;;-144.99;76.34;52558.16;5072095;28;19986;-76
2023/02/14 02:33:22;;;;;;;;;;;;;;;-144.99;76.52;52533.69;5064689;28;19959;-75
2023/02/14 02:35:58;;;;;;;;;;;;;;;-144.99;76.57;52505.16;5075931;28;20014;-76
2023/02/14 02:38:33;;;;;;;;;;;;;;;-144.99;76.73;52574.47;5084378;28;19933;-78
2023/02/14 02:41:03;;;;;;;;;;;;;;;-144.99;76.82;52550.00;5080862;28;20029;-75
2023/02/14 02:43:35;;;;;;;;;;;;;;;-144.99;76.79;52582.63;5069147;28;20384;-75
2023/02/14 02:48:54;;;;;;;;;;;;;;;-144.99;76.88;52545.94;5063735;28;19949;-76
2023/02/14 02:54:14;;;;;;;;;;;;;;;-144.99;77.06;52566.31;5081797;28;19963;-76
2023/02/14 02:56:44;;;;;;;;;;;;;;;-144.99;77.01;52576.50;5081053;28;19936;-76
2023/02/14 02:59:17;;;;;;;;;;;;;;;-144.99;77.04;52545.94;5074175;28;19940;-76
2023/02/14 03:01:45;;;;;;;;;;;;;;;-144.99;77.04;52586.69;5076782;28;19924;-76
2023/02/14 03:06:58;;;;;;;;;;;;;;;-144.99;77.17;52566.31;5061763;28;20506;-76
2023/02/14 03:09:43;;;;;;;;;;;;;;;-144.99;77.10;52570.38;5068478;28;19942;-76
2023/02/14 03:12:15;;;;;;;;;;;;;;;-144.99;77.28;52594.84;5082896;28;20413;-75
2023/02/14 03:14:47;;;;;;;;;;;;;;;-144.99;77.14;52580.59;5077390;28;20184;-75
2023/02/14 03:17:20;;;;;;;;;;;;;;;-144.99;77.31;52570.38;5074420;28;19966;-76
2023/02/14 03:22:44;;;;;;;;;;;;;;;-144.99;77.54;52590.78;5075277;28;19977;-75
2023/02/14 03:25:15;;;;;;;;;;;;;;;-144.99;77.57;52627.47;5081381;28;19941;-74
2023/02/14 03:27:45;;;;;;;;;;;;;;;-144.99;77.64;52578.53;5067028;28;19938;-74
2023/02/14 03:30:17;;;;;;;;;;;;;;;-144.99;77.69;52517.41;5080864;28;19968;-75
2023/02/14 03:32:46;;;;;;;;;;;;;;;-144.99;77.76;52582.63;5074032;28;19961;-75
2023/02/14 03:35:16;;;;;;;;;;;;;;;-144.99;77.68;52592.81;5079705;28;19940;-74
2023/02/14 03:37:47;;;;;;;;;;;;;;;-144.99;77.87;52582.63;5064253;28;19944;-74
2023/02/14 03:40:15;;;;;;;;;;;;;;;-144.99;77.86;52566.31;5075930;28;19924;-74
2023/02/14 03:42:45;;;;;;;;;;;;;;;-144.99;77.92;52554.09;5079338;28;19978;-75
2023/02/14 03:45:13;;;;;;;;;;;;;;;-144.99;77.92;52590.78;5071255;28;19966;-74
2023/02/14 03:47:41;;;;;;;;;;;;;;;-144.99;78.10;52568.34;5070267;28;19938;-75
2023/02/14 03:50:10;;;;;;;;;;;;;;;-144.99;78.14;52545.94;5078536;28;19944;-74
2023/02/14 03:52:37;;;;;;;;;;;;;;;-144.99;78.15;52598.94;5074973;28;19968;-74
2023/02/14 03:55:07;;;;;;;;;;;;;;;-144.99;78.15;52550.00;5068959;28;19944;-75
2023/02/14 03:57:37;;;;;;;;;;;;;;;-144.99;78.31;52598.94;5067222;28;19939;-73
2023/02/14 04:00:04;;;;;;;;;;;;;;;-144.99;78.29;52574.47;5073813;28;19973;-74
2023/02/14 04:02:33;;;;;;;;;;;;;;;-144.99;78.33;52592.81;5078524;28;19961;-74
2023/02/14 04:05:01;;;;;;;;;;;;;;;-144.99;78.36;52582.63;5081085;28;19945;-74
2023/02/14 04:07:28;;;;;;;;;;;;;;;-144.99;78.25;52550.00;5067763;28;19945;-75
2023/02/14 04:09:54;;;;;;;;;;;;;;;-144.99;78.30;52562.25;5074187;28;20090;-75
2023/02/14 04:12:22;;;;;;;;;;;;;;;-144.99;78.30;52564.28;5083677;28;19958;-75
2023/02/14 04:14:48;;;;;;;;;;;;;;;-144.99;78.31;52541.84;5073654;28;19965;-74
2023/02/14 04:19:59;;;;;;;;;;;;;;;-144.99;78.49;52568.34;5072710;28;20502;-75
2023/02/14 04:22:26;;;;;;;;;;;;;;;-144.99;78.53;52547.97;5077617;28;20441;-74
2023/02/14 04:24:52;;;;;;;;;;;;;;;-144.99;78.54;52586.69;5078257;28;19963;-75
2023/02/14 04:27:19;;;;;;;;;;;;;;;-144.99;78.57;52558.16;5066350;28;19950;-75
2023/02/14 04:29:48;;;;;;;;;;;;;;;-144.99;78.64;52578.53;5079858;28;19940;-74
2023/02/14 04:32:16;;;;;;;;;;;;;;;-144.99;78.56;52574.47;5066217;28;19969;-74
2023/02/14 04:34:42;;;;;;;;;;;;;;;-144.99;78.57;52582.63;5074786;28;19945;-74
2023/02/14 04:37:09;;;;;;;;;;;;;;;-144.99;78.48;52558.16;5065356;28;20015;-74
2023/02/14 04:39:35;;;;;;;;;;;;;;;-144.99;78.69;52562.25;5076806;28;19987;-76
2023/02/14 04:42:02;;;;;;;;;;;;;;;-144.99;78.47;52582.63;5076413;28;19995;-75
2023/02/14 04:44:29;;;;;;;;;;;;;;;-144.99;78.32;52556.13;5077178;28;20397;-75
2023/02/14 04:46:57;;;;;;;;;;;;;;;-144.99;78.20;52578.53;5065054;28;19943;-75
2023/02/14 04:49:23;;;;;;;;;;;;;;;-144.99;78.13;52582.63;5065244;28;19943;-74
2023/02/14 04:51:50;;;;;;;;;;;;;;;-144.99;78.11;52533.69;5081811;28;20006;-75
2023/02/14 04:54:16;;;;;;;;;;;;;;;-144.99;78.24;52554.09;5098518;22;19969;-72
2023/02/14 04:56:42;;;;;;;;;;;;;;;-144.99;78.20;52588.75;5046371;28;20042;-70
2023/02/14 04:59:09;;;;;;;;;;;;;;;-144.99;78.24;52574.47;5051017;28;19973;-71
2023/02/14 05:01:36;;;;;;;;;;;;;;;-144.99;78.23;52603.00;5063047;28;19990;-71
2023/02/14 05:04:04;;;;;;;;;;;;;;;-144.99;78.27;52541.84;5065862;28;20042;-71
2023/02/14 05:06:30;;;;;;;;;;;;;;;-144.99;78.24;52554.09;5061962;28;20543;-71
2023/02/14 05:08:56;;;;;;;;;;;;;;;-144.99;78.31;52562.25;5048650;28;20040;-70
2023/02/14 05:11:23;;;;;;;;;;;;;;;-144.99;78.23;52552.03;5061920;28;19956;-72
2023/02/14 05:13:49;;;;;;;;;;;;;;;-144.99;78.29;52586.69;5065032;28;19945;-72
2023/02/14 05:16:16;;;;;;;;;;;;;;;-144.99;78.40;52598.94;5058247;28;19996;-72
2023/02/14 05:18:42;;;;;;;;;;;;;;;-144.99;78.31;52566.31;5061992;28;20041;-72
2023/02/14 05:21:10;;;;;;;;;;;;;;;-144.99;78.33;52611.16;5058702;28;20392;-72
2023/02/14 05:23:37;;;;;;;;;;;;;;;-144.99;78.40;52552.03;5061984;28;19942;-72
2023/02/14 05:26:04;;;;;;;;;;;;;;;-144.99;78.40;52590.78;5057472;28;20006;-75
2023/02/14 05:28:30;;;;;;;;;;;;;;;-144.99;78.39;52586.69;5062548;28;20040;-73
2023/02/14 05:30:57;;;;;;;;;;;;;;;-144.99;78.54;52545.94;5060859;28;20090;-73
2023/02/14 05:33:24;;;;;;;;;;;;;;;-144.99;78.82;52554.09;5067999;28;19945;-72
2023/02/14 05:35:50;;;;;;;;;;;;;;;-144.99;79.09;52556.13;5058174;28;20019;-72
2023/02/14 05:38:19;;;;;;;;;;;;;;;-144.99;79.23;52572.44;5064229;28;19942;-72
2023/02/14 05:40:45;;;;;;;;;;;;;;;-144.99;78.98;52537.78;5059616;28;20364;-73
2023/02/14 05:43:12;;;;;;;;;;;;;;;-144.99;79.24;52558.16;5066355;28;20661;-72
2023/02/14 05:45:38;;;;;;;;;;;;;;;-144.99;79.36;52566.31;5055982;28;20028;-72
2023/02/14 05:48:05;;;;;;;;;;;;;;;-144.99;79.55;52550.00;5058110;28;20037;-72
2023/02/14 05:50:31;;;;;;;;;;;;;;;-144.99;79.86;52623.38;5060991;28;20317;-72
2023/02/14 05:52:58;;;;;;;;;;;;;;;-144.99;79.70;52566.31;5064159;28;20492;-73
2023/02/14 05:55:26;;;;;;;;;;;;;;;-144.99;80.69;52521.47;5057923;28;20308;-72
2023/02/14 05:57:52;;;;;;;;;;;;;;;-144.99;81.41;52570.38;5057206;28;20022;-73
2023/02/14 06:00:19;;;;;;;;;;;;;;;-144.99;81.95;52574.47;5053906;28;20038;-72
2023/02/14 06:02:46;;;;;;;;;;;;;;;-144.99;81.77;52554.09;5053486;28;19936;-72
2023/02/14 06:05:13;;;;;;;;;;;;;;;-144.99;81.63;52631.53;5062209;28;20549;-73
2023/02/14 06:07:41;;;;;;;;;;;;;;;-144.99;81.15;52578.53;5057804;28;19993;-74
2023/02/14 06:10:09;;;;;;;;;;;;;;;-144.99;81.47;52552.03;5054464;28;19997;-73
2023/02/14 06:12:37;;;;;;;;;;;;;;;-144.99;81.31;52545.94;5065945;28;19961;-73
2023/02/14 06:15:03;;;;;;;;;;;;;;;-144.99;81.42;52582.63;5056793;28;20334;-75
2023/02/14 06:17:30;;;;;;;;;;;;;;;-144.99;81.74;52582.63;5058304;28;19975;-74
2023/02/14 06:19:56;;;;;;;;;;;;;;;-144.99;81.88;52509.25;5040640;28;20041;-75
2023/02/14 06:22:23;;;;;;;;;;;;;;;-144.99;81.32;52552.03;5056830;28;20040;-75
2023/02/14 06:24:49;;;;;;;;;;;;;;;-144.99;81.37;52611.16;5057782;28;20005;-75
2023/02/14 06:27:16;;;;;;;;;;;;;;;-144.99;81.18;52586.69;5061107;28;20046;-76
2023/02/14 06:29:43;;;;;;;;;;;;;;;-144.99;80.94;52533.69;4706749;28;9999705;-77
2023/02/14 06:32:10;;;;;;;;;;;;;;;-144.99;80.77;52570.38;5051641;28;20075;-76
2023/02/14 06:34:38;;;;;;;;;;;;;;;-144.99;80.70;52547.97;5050608;28;19991;-76
2023/02/14 06:37:05;;;;;;;;;;;;;;;-144.99;80.60;52578.53;5045195;28;19955;-76
2023/02/14 06:39:31;;;;;;;;;;;;;;;-144.99;80.63;52594.84;5046218;28;19949;-76
2023/02/14 06:41:57;;;;;;;;;;;;;;;-144.99;80.73;52562.25;5052399;28;19956;-72
2023/02/14 06:44:24;;;;;;;;;;;;;;;-144.99;80.24;52566.31;5047522;28;20041;-75
2023/02/14 06:46:52;;;;;;;;;;;;;;;-144.99;80.12;52556.13;5051230;28;20043;-75
2023/02/14 06:49:18;;;;;;;;;;;;;;;-144.99;80.06;52562.25;5042936;28;20030;-75
2023/02/14 06:51:45;;;;;;;;;;;;;;;-144.99;80.06;52605.03;5053637;28;20266;-75
2023/02/14 06:54:11;;;;;;;;;;;;;;;-144.99;80.00;52590.78;5044909;28;20468;-74
2023/02/14 06:56:38;;;;;;;;;;;;;;;-144.99;80.28;52550.00;5062951;28;20003;-74
2023/02/14 06:59:05;;;;;;;;;;;;;;;-144.99;80.29;52574.47;5042094;28;20029;-74
2023/02/14 07:01:31;;;;;;;;;;;;;;;-144.99;80.31;52545.94;5040312;28;19943;-74
2023/02/14 07:03:59;;;;;;;;;;;;;;;-144.99;80.27;52566.31;5056879;28;19977;-73
2023/02/14 07:06:26;;;;;;;;;;;;;;;-144.99;80.49;52525.56;5048554;28;20109;-75
2023/02/14 07:08:52;;;;;;;;;;;;;;;-144.99;80.59;52578.53;5041596;28;20250;-75
2023/02/14 07:11:18;;;;;;;;;;;;;;;-144.99;80.67;52578.53;5051466;28;19963;-74
2023/02/14 07:13:45;;;;;;;;;;;;;;;-144.99;80.82;52574.47;5053099;28;19968;-75
2023/02/14 07:16:11;;;;;;;;;;;;;;;-144.99;80.91;52558.16;5041792;28;20019;-76
2023/02/14 07:18:38;;;;;;;;;;;;;;;-144.99;80.61;52558.16;5041677;28;20044;-75
2023/02/14 07:21:06;;;;;;;;;;;;;;;-144.99;80.42;52566.31;5043739;28;20302;-75
2023/02/14 07:23:32;;;;;;;;;;;;;;;-144.99;80.98;52566.31;5052301;28;19988;-75
2023/02/14 07:25:59;;;;;;;;;;;;;;;-144.99;81.07;52590.78;5054345;28;20214;-75
2023/02/14 07:28:25;;;;;;;;;;;;;;;-144.99;81.13;52558.16;5047373;28;20320;-75
2023/02/14 07:30:52;;;;;;;;;;;;;;;-144.99;81.28;52550.00;5047811;28;20053;-74
2023/02/14 07:33:18;;;;;;;;;;;;;;;-144.99;81.27;52570.38;5046164;28;19963;-75
2023/02/14 07:35:44;;;;;;;;;;;;;;;-144.99;81.09;52572.44;5048605;28;20053;-75
2023/02/14 07:38:12;;;;;;;;;;;;;;;-144.99;80.96;52562.25;5049862;28;20230;-74
2023/02/14 07:40:39;;;;;;;;;;;;;;;-144.99;80.78;52558.16;5044545;28;19994;-76
2023/02/14 07:43:06;;;;;;;;;;;;;;;-144.99;80.83;52570.38;5052637;28;20035;-74
2023/02/14 07:45:33;;;;;;;;;;;;;;;-144.99;80.83;52545.94;5056708;28;20420;-73
2023/02/14 07:48:00;;;;;;;;;;;;;;;-144.99;80.86;52578.53;5044974;28;20024;-75
2023/02/14 07:50:28;;;;;;;;;;;;;;;-144.99;80.80;52598.94;5045320;28;20318;-73
2023/02/14 07:52:54;;;;;;;;;;;;;;;-144.99;80.80;52554.09;5049670;28;19953;-73
2023/02/14 07:55:23;;;;;;;;;;;;;;;-144.99;80.63;52537.78;5056531;28;20016;-74
2023/02/14 07:57:50;;;;;;;;;;;;;;;-144.99;80.51;52566.31;5056020;28;20442;-73
2023/02/14 08:00:17;;;;;;;;;;;;;;;-144.99;80.27;52566.31;5051842;28;19997;-76
2023/02/14 08:02:43;;;;;;;;;;;;;;;-144.99;80.33;52564.28;5050051;28;20392;-77
2023/02/14 08:05:10;;;;;;;;;;;;;;;-144.99;80.73;52550.00;5061964;28;19997;-72
2023/02/14 08:07:36;;;;;;;;;;;;;;;-144.99;80.74;52582.63;5055562;28;20016;-74
2023/02/14 08:10:03;;;;;;;;;;;;;;;-144.99;80.84;52566.31;5044053;28;19981;-73
2023/02/14 08:18:05;;;;;;;;;;;;;;;-144.99;80.69;52570.38;5045393;28;20037;-73
2023/02/14 08:20:31;;;;;;;;;;;;;;;-144.99;80.71;52541.84;5048329;28;20048;-73
2023/02/14 08:22:58;;;;;;;;;;;;;;;-144.99;80.63;52547.97;5055249;28;20017;-75
2023/02/14 08:25:24;;;;;;;;;;;;;;;-144.99;80.35;52570.38;5047123;28;20090;-76
2023/02/14 08:27:54;;;;;;;;;;;;;;;-144.99;80.43;52550.00;5054585;28;20412;-76
2023/02/14 08:30:20;;;;;;;;;;;;;;;-144.99;80.50;52550.00;5054147;28;20007;-74
2023/02/14 08:32:47;;;;;;;;;;;;;;;-144.99;80.41;52513.31;5057083;28;19959;-74
2023/02/14 08:35:13;;;;;;;;;;;;;;;-144.99;80.11;52541.84;5049599;28;20471;-74
2023/02/14 08:37:40;;;;;;;;;;;;;;;-144.99;79.50;52519.44;5051323;28;20366;-73
2023/02/14 08:40:07;;;;;;;;;;;;;;;-144.99;79.28;52529.63;5050389;28;20045;-74
2023/02/14 08:42:33;;;;;;;;;;;;;;;-144.99;78.61;52541.84;5053245;28;20047;-74
2023/02/14 08:45:01;;;;;;;;;;;;;;;-144.99;77.88;52497.00;5046584;28;20054;-74
2023/02/14 08:47:27;;;;;;;;;;;;;;;-144.99;76.52;52492.94;5051584;28;19974;-74
2023/02/14 08:49:54;;;;;;;;;;;;;;;-144.99;75.11;52513.31;5054333;28;20028;-74
2023/02/14 08:52:20;;;;;;;;;;;;;;;-144.99;74.44;52480.72;5053639;28;20007;-73
2023/02/14 08:54:47;;;;;;;;;;;;;;;-144.99;73.40;52484.78;5048359;28;19974;-74
2023/02/14 08:57:14;;;;;;;;;;;;;;;-144.99;72.86;52509.25;5051094;28;19988;-75
2023/02/14 08:59:40;;;;;;;;;;;;;;;-144.99;72.03;52492.94;5054654;28;19945;-76
2023/02/14 09:02:11;;;;;;;;;;;;;;;-144.99;71.55;52492.94;5046349;28;20047;-74
2023/02/14 09:04:38;;;;;;;;;;;;;;;-144.99;70.43;52456.25;5054703;28;19960;-74
2023/02/14 09:07:04;;;;;;;;;;;;;;;-144.99;69.71;52492.94;5052775;28;19956;-77
2023/02/14 09:09:31;;;;;;;;;;;;;;;-144.99;68.88;52460.31;5053198;28;19972;-76
2023/02/14 09:11:57;;;;;;;;;;;;;;;-144.99;68.30;52509.25;5055216;28;20026;-76
2023/02/14 09:14:24;;;;;;;;;;;;;;;-144.99;66.60;52439.94;5047916;28;20034;-74
2023/02/14 09:16:50;;;;;;;;;;;;;;;-144.99;65.80;52427.72;5052928;28;20449;-76
2023/02/14 09:19:18;;;;;;;;;;;;;;;-144.99;65.95;52452.16;5054888;28;20017;-77
2023/02/14 09:21:45;;;;;;;;;;;;;;;-144.99;64.50;52448.09;5049471;28;20403;-74
2023/02/14 09:24:11;;;;;;;;;;;;;;;-144.99;64.07;52476.63;5046629;28;20411;-75
2023/02/14 09:26:40;;;;;;;;;;;;;;;-144.99;63.66;52480.72;5054523;28;20018;-76
2023/02/14 09:29:07;;;;;;;;;;;;;;;-144.99;63.12;52503.13;5058758;28;19953;-74
2023/02/14 09:31:33;;;;;;;;;;;;;;;-144.99;62.69;52439.94;5055681;28;19944;-77
2023/02/14 09:34:00;;;;;;;;;;;;;;;-144.99;62.47;52476.63;5057535;28;19958;-75
2023/02/14 09:36:28;;;;;;;;;;;;;;;-144.99;61.66;52437.91;5054993;28;19995;-76
2023/02/14 09:38:54;;;;;;;;;;;;;;;-144.99;60.98;52488.84;5058746;28;20480;-76
2023/02/14 09:41:41;;;;;;;;;;;;;;;-144.99;60.63;52429.75;5056890;28;20001;-77
2023/02/14 09:44:08;;;;;;;;;;;;;;;-144.99;59.86;52448.09;5057433;28;19970;-75
2023/02/14 09:46:38;;;;;;;;;;;;;;;-144.99;58.86;52435.88;5052017;28;19941;-75
2023/02/14 09:49:08;;;;;;;;;;;;;;;-144.99;57.75;52407.31;5048436;28;20035;-75
2023/02/14 09:51:37;;;;;;;;;;;;;;;-144.99;57.41;52378.78;5053539;28;19938;-74
2023/02/14 09:54:06;;;;;;;;;;;;;;;-144.99;56.06;52372.69;5053184;28;20089;-74
2023/02/14 09:56:37;;;;;;;;;;;;;;;-144.99;55.94;52407.31;5045949;28;20267;-75
2023/02/14 09:59:06;;;;;;;;;;;;;;;-144.99;54.95;52411.41;5055755;28;20427;-75
2023/02/14 10:01:35;;;;;;;;;;;;;;;-144.99;53.38;52350.25;5054177;28;20006;-75
2023/02/14 10:04:13;;;;;;;;;;;;;;;-144.99;52.12;52358.41;5052480;28;20494;-74
2023/02/14 10:06:45;;;;;;;;;;;;;;;-144.99;51.72;52333.94;5047943;28;20062;-74
2023/02/14 10:09:17;;;;;;;;;;;;;;;-144.99;50.67;52333.94;5049627;28;20029;-76
2023/02/14 10:11:45;;;;;;;;;;;;;;;-144.99;49.23;52309.50;5056025;28;20031;-75
2023/02/14 10:14:14;;;;;;;;;;;;;;;-144.99;48.69;52303.38;5055114;28;20051;-74
2023/02/14 10:16:43;;;;;;;;;;;;;;;-144.99;48.00;52321.72;5053699;28;20060;-74
2023/02/14 10:19:17;;;;;;;;;;;;;;;-144.99;47.66;52311.53;5059065;28;20000;-74
2023/02/14 10:21:49;;;;;;;;;;;;;;;-144.99;46.97;52303.38;5051204;28;20057;-75
2023/02/14 10:24:18;;;;;;;;;;;;;;;-144.99;46.21;52280.97;5049150;28;20049;-75
2023/02/14 10:26:46;;;;;;;;;;;;;;;-144.99;45.17;52317.66;5051198;28;20264;-75
2023/02/14 10:29:14;;;;;;;;;;;;;;;-144.99;44.49;52246.31;5057094;28;20449;-75
2023/02/14 10:31:48;;;;;;;;;;;;;;;-144.99;43.89;52260.56;5048001;28;20051;-75
2023/02/14 10:34:18;;;;;;;;;;;;;;;-144.99;43.22;52285.03;5051395;28;20031;-75
2023/02/14 10:36:55;;;;;;;;;;;;;;;-144.99;42.47;52260.56;5047207;28;20581;-76
2023/02/14 10:39:41;;;;;;;;;;;;;;;-144.99;41.95;52244.28;5051564;28;20418;-75
2023/02/14 10:42:15;;;;;;;;;;;;;;;-144.99;42.02;52227.97;5033950;28;21769;-75
2023/02/14 10:44:45;;;;;;;;;;;;;;;-144.99;41.76;52244.28;5051928;28;20061;-76
2023/02/14 10:47:23;;;;;;;;;;;;;;;-144.99;41.87;52223.88;5054922;28;19950;-75
2023/02/14 10:49:54;;;;;;;;;;;;;;;-144.99;41.23;52177.00;5052175;28;20045;-76
2023/02/14 10:52:25;;;;;;;;;;;;;;;-144.99;41.00;52179.06;5050466;28;19988;-75
2023/02/14 10:54:55;;;;;;;;;;;;;;;-144.99;40.43;52130.13;5044761;28;19992;-73
2023/02/14 10:57:25;;;;;;;;;;;;;;;-144.99;39.90;52193.31;5051928;28;20479;-76
2023/02/14 10:59:54;;;;;;;;;;;;;;;-144.99;40.07;52199.44;5053538;28;20071;-75
2023/02/14 11:02:22;;;;;;;;;;;;;;;-144.99;39.77;52183.13;5049325;28;20466;-75
2023/02/14 11:04:49;;;;;;;;;;;;;;;-144.99;39.43;52126.06;5051325;28;19965;-75
2023/02/14 11:07:17;;;;;;;;;;;;;;;-144.99;38.93;52170.91;5048784;28;19979;-76
2023/02/14 11:09:45;;;;;;;;;;;;;;;-144.99;38.51;52124.03;5044980;28;19996;-74
2023/02/14 11:12:12;;;;;;;;;;;;;;;-144.99;38.68;52146.44;5054412;28;19984;-74
2023/02/14 11:14:39;;;;;;;;;;;;;;;-144.99;38.82;52174.97;5048927;28;20250;-74
2023/02/14 11:17:26;;;;;;;;;;;;;;;-144.99;38.62;52166.81;5050633;28;19960;-75
2023/02/14 11:19:56;;;;;;;;;;;;;;;-144.99;38.75;52195.34;5048362;28;19993;-74
2023/02/14 11:22:28;;;;;;;;;;;;;;;-144.99;38.75;52158.66;5052199;28;20376;-74
2023/02/14 11:25:02;;;;;;;;;;;;;;;-144.99;37.94;52142.38;5052037;28;20026;-74
2023/02/14 11:27:28;;;;;;;;;;;;;;;-144.99;37.80;52138.28;5050362;28;20033;-74
2023/02/14 11:29:55;;;;;;;;;;;;;;;-144.99;37.78;52117.91;5050707;28;19995;-75
2023/02/14 11:32:22;;;;;;;;;;;;;;;-144.99;37.46;52177.00;5055048;28;19948;-76
2023/02/14 11:34:54;;;;;;;;;;;;;;;-144.99;37.39;52121.97;5051979;28;20420;-75
2023/02/14 11:37:27;;;;;;;;;;;;;;;-144.99;37.27;52146.44;5050972;28;19947;-75
2023/02/14 11:39:55;;;;;;;;;;;;;;;-144.99;36.87;52128.09;5047396;28;20069;-75
2023/02/14 11:42:34;;;;;;;;;;;;;;;-144.99;35.95;52113.84;5052550;28;19984;-80
2023/02/14 11:45:01;;;;;;;;;;;;;;;-144.99;35.82;52085.31;5054888;28;19965;-75
2023/02/14 11:47:29;;;;;;;;;;;;;;;-144.99;35.81;52087.34;5037215;28;19988;-75
2023/02/14 11:49:57;;;;;;;;;;;;;;;-144.99;36.24;52146.44;5050745;28;20287;-75
2023/02/14 11:52:25;;;;;;;;;;;;;;;-144.99;36.66;52130.13;5048346;28;19948;-74
2023/02/14 11:54:52;;;;;;;;;;;;;;;-144.99;36.37;52126.06;5050115;28;20361;-73
2023/02/14 11:57:21;;;;;;;;;;;;;;;-144.99;35.77;52117.91;5044371;28;19958;-76
2023/02/14 11:59:52;;;;;;;;;;;;;;;-144.99;35.39;52109.75;5045033;28;20419;-74
2023/02/14 12:02:25;;;;;;;;;;;;;;;-144.99;35.56;52101.59;5046700;28;20330;-76
2023/02/14 12:04:53;;;;;;;;;;;;;;;-144.99;35.54;52056.78;5051262;28;20051;-74
2023/02/14 12:07:21;;;;;;;;;;;;;;;-144.99;34.94;52048.63;5050389;28;19947;-73
2023/02/14 12:09:48;;;;;;;;;;;;;;;-144.99;35.00;52117.91;5043499;28;20014;-73
2023/02/14 12:12:16;;;;;;;;;;;;;;;-144.99;35.36;52105.69;5049287;28;20041;-75
2023/02/14 12:14:43;;;;;;;;;;;;;;;-144.99;34.94;52081.22;5043799;28;20748;-75
2023/02/14 12:17:17;;;;;;;;;;;;;;;-144.99;35.10;52079.19;5037275;28;20046;-74
2023/02/14 12:19:48;;;;;;;;;;;;;;;-144.99;34.85;52097.53;5040285;28;20092;-74
2023/02/14 12:22:18;;;;;;;;;;;;;;;-144.99;35.18;52146.44;5039122;28;20043;-74
2023/02/14 12:24:49;;;;;;;;;;;;;;;-144.99;35.17;52103.66;5040268;28;20073;-74
2023/02/14 12:27:20;;;;;;;;;;;;;;;-144.99;34.83;52121.97;5062964;28;19989;-74
2023/02/14 12:29:49;;;;;;;;;;;;;;;-144.99;35.18;52113.84;5043241;28;19949;-75
2023/02/14 12:32:20;;;;;;;;;;;;;;;-144.99;34.55;52097.53;5059785;28;19951;-75
2023/02/14 12:34:47;;;;;;;;;;;;;;;-144.99;34.19;52091.41;5058357;28;19964;-75
2023/02/14 12:37:17;;;;;;;;;;;;;;;-144.99;33.83;52089.38;5040227;28;20054;-75
2023/02/14 12:39:53;;;;;;;;;;;;;;;-144.99;33.59;52069.00;5029855;28;20473;-75
2023/02/14 12:42:26;;;;;;;;;;;;;;;-144.99;34.00;52152.56;5053802;28;20038;-73
2023/02/14 12:44:58;;;;;;;;;;;;;;;-144.99;34.47;52134.22;5044211;28;20002;-74
2023/02/14 12:47:33;;;;;;;;;;;;;;;-144.99;34.48;52107.72;5048748;28;20019;-75
2023/02/14 12:50:11;;;;;;;;;;;;;;;-144.99;33.94;52093.44;5043538;28;20075;-77
2023/02/14 12:52:43;;;;;;;;;;;;;;;-144.99;33.31;52040.47;5050485;28;19943;-75
2023/02/14 12:55:23;;;;;;;;;;;;;;;-144.99;33.11;52073.06;5061053;28;20067;-74